createdAt,value
2022-10-11T00:01:13.379Z,101317.40
2022-10-11T00:03:42.040Z,101321.60
2022-10-11T00:06:10.522Z,101322.40
2022-10-11T00:08:39.003Z,101322.00
2022-10-11T00:11:09.237Z,101328.80
2022-10-11T00:13:37.810Z,101332.80
2022-10-11T00:16:14.381Z,101337.40
2022-10-11T00:18:43.000Z,101339.20
2022-10-11T00:21:14.625Z,101346.20
2022-10-11T00:23:43.721Z,101347.00
2022-10-11T00:26:12.613Z,101361.60
2022-10-11T00:28:42.304Z,101357.20
2022-10-11T00:31:16.009Z,101358.60
2022-10-11T00:33:44.918Z,101367.40
2022-10-11T00:36:17.602Z,101373.40
2022-10-11T00:38:46.550Z,101381.80
2022-10-11T00:41:16.693Z,101393.80
2022-10-11T00:43:45.809Z,101393.60
2022-10-11T00:46:14.188Z,101387.40
2022-10-11T00:48:50.814Z,101396.60
2022-10-11T00:51:53.446Z,101406.60
2022-10-11T00:54:27.786Z,101406.80
2022-10-11T00:57:09.539Z,101407.80
2022-10-11T00:59:44.196Z,101413.80
2022-10-11T01:02:13.997Z,101415.00
2022-10-11T01:04:43.105Z,101420.80
2022-10-11T01:07:12.497Z,101422.20
2022-10-11T01:09:41.082Z,101428.80
2022-10-11T01:12:24.990Z,101426.00
2022-10-11T01:15:10.711Z,101433.20
2022-10-11T01:17:56.293Z,101435.40
2022-10-11T01:20:41.367Z,101437.60
2022-10-11T01:23:59.616Z,101444.20
2022-10-11T01:27:10.900Z,101447.40
2022-10-11T01:29:50.440Z,101456.40
2022-10-11T01:32:49.441Z,101453.40
2022-10-11T01:35:41.165Z,101455.40
2022-10-11T01:38:33.303Z,101467.80
2022-10-11T01:41:12.434Z,101472.40
2022-10-11T01:43:41.839Z,101475.80
2022-10-11T01:46:11.202Z,101478.60
2022-10-11T01:48:57.419Z,101477.80
2022-10-11T01:51:46.980Z,101477.40
2022-10-11T01:54:35.224Z,101484.20
2022-10-11T01:57:59.558Z,101486.20
2022-10-11T02:01:37.155Z,101490.80
2022-10-11T02:04:48.446Z,101496.20
2022-10-11T02:07:23.561Z,101505.20
2022-10-11T02:10:15.206Z,101507.40
2022-10-11T02:12:54.234Z,101508.80
2022-10-11T02:15:23.822Z,101516.00
2022-10-11T02:17:57.576Z,101514.80
2022-10-11T02:20:30.534Z,101517.00
2022-10-11T02:23:17.249Z,101519.00
2022-10-11T02:25:48.596Z,101523.60
2022-10-11T02:28:30.304Z,101529.80
2022-10-11T02:31:01.714Z,101533.80
2022-10-11T02:33:53.668Z,101546.20
2022-10-11T02:36:37.921Z,101546.60
2022-10-11T02:39:17.047Z,101551.80
2022-10-11T02:41:47.008Z,101551.20
2022-10-11T02:44:40.844Z,101554.20
2022-10-11T02:47:10.146Z,101561.80
2022-10-11T02:49:38.627Z,101563.20
2022-10-11T02:52:07.318Z,101565.80
2022-10-11T02:54:35.940Z,101566.40
2022-10-11T02:57:04.386Z,101568.00
2022-10-11T02:59:32.862Z,101574.20
2022-10-11T03:02:01.323Z,101583.60
2022-10-11T03:04:30.036Z,101582.80
2022-10-11T03:06:58.512Z,101586.20
2022-10-11T03:09:27.303Z,101592.20
2022-10-11T03:11:55.811Z,101603.00
2022-10-11T03:14:24.984Z,101600.40
2022-10-11T03:16:53.468Z,101606.60
2022-10-11T03:19:21.946Z,101609.00
2022-10-11T03:21:50.428Z,101608.00
2022-10-11T03:24:18.911Z,101610.00
2022-10-11T03:26:47.393Z,101627.40
2022-10-11T03:29:15.874Z,101622.60
2022-10-11T03:31:44.359Z,101628.60
2022-10-11T03:34:12.839Z,101630.60
2022-10-11T03:36:41.422Z,101637.80
2022-10-11T03:39:10.008Z,101636.60
2022-10-11T03:41:38.489Z,101644.20
2022-10-11T03:44:06.980Z,101646.20
2022-10-11T03:46:35.457Z,101652.00
2022-10-11T03:49:03.937Z,101650.60
2022-10-11T03:51:32.317Z,101653.60
2022-10-11T03:54:00.697Z,101658.20
2022-10-11T03:56:29.176Z,101657.80
2022-10-11T03:58:57.669Z,101660.80
2022-10-11T04:01:26.178Z,101663.20
2022-10-11T04:03:58.002Z,101665.80
2022-10-11T04:06:26.484Z,101670.40
2022-10-11T04:08:54.863Z,101673.40
2022-10-11T04:11:23.449Z,101682.80
2022-10-11T04:13:51.959Z,101682.40
2022-10-11T04:16:20.515Z,101681.20
2022-10-11T04:18:48.998Z,101690.40
2022-10-11T04:21:18.299Z,101692.00
2022-10-11T04:23:46.676Z,101692.20
2022-10-11T04:26:15.158Z,101698.60
2022-10-11T04:28:43.782Z,101698.00
2022-10-11T04:31:12.224Z,101706.80
2022-10-11T04:33:40.914Z,101705.20
2022-10-11T04:36:09.527Z,101708.20
2022-10-11T04:38:37.978Z,101709.80
2022-10-11T04:41:11.374Z,101713.20
2022-10-11T04:43:40.370Z,101711.40
2022-10-11T04:46:10.564Z,101716.20
2022-10-11T04:48:39.385Z,101716.80
2022-10-11T04:51:07.863Z,101719.60
2022-10-11T04:53:36.449Z,101723.60
2022-10-11T04:56:11.314Z,101724.60
2022-10-11T04:58:41.399Z,101730.40
2022-10-11T05:01:10.598Z,101726.20
2022-10-11T05:03:39.089Z,101728.40
2022-10-11T05:06:08.001Z,101735.20
2022-10-11T05:08:36.823Z,101735.20
2022-10-11T05:11:10.874Z,101739.20
2022-10-11T05:13:39.578Z,101743.80
2022-10-11T05:16:10.800Z,101749.00
2022-10-11T05:18:40.725Z,101755.40
2022-10-11T05:21:24.156Z,101755.80
2022-10-11T05:23:56.157Z,101762.80
2022-10-11T05:26:27.921Z,101767.40
2022-10-11T05:28:56.623Z,101769.20
2022-10-11T05:31:25.153Z,101775.60
2022-10-11T05:33:53.632Z,101779.00
2022-10-11T05:36:22.524Z,101779.00
2022-10-11T05:38:50.911Z,101781.60
2022-10-11T05:41:19.387Z,101786.20
2022-10-11T05:43:47.970Z,101792.60
2022-10-11T05:46:16.963Z,101800.80
2022-10-11T05:48:45.560Z,101807.00
2022-10-11T05:51:14.542Z,101809.20
2022-10-11T05:53:43.949Z,101807.00
2022-10-11T05:56:21.439Z,101807.20
2022-10-11T05:58:51.563Z,101806.80
2022-10-11T06:01:26.358Z,101811.60
2022-10-11T06:03:56.119Z,101813.40
2022-10-11T06:06:24.583Z,101812.40
2022-10-11T06:08:53.065Z,101817.00
2022-10-11T06:11:26.134Z,101820.80
2022-10-11T06:13:56.500Z,101819.80
2022-10-11T06:16:26.397Z,101822.80
2022-10-11T06:18:56.587Z,101819.60
2022-10-11T06:21:25.207Z,101827.40
2022-10-11T06:23:59.987Z,101827.80
2022-10-11T06:26:30.647Z,101827.60
2022-10-11T06:28:59.282Z,101823.20
2022-10-11T06:31:27.873Z,101822.60
2022-10-11T06:33:56.419Z,101822.20
2022-10-11T06:36:25.526Z,101815.80
2022-10-11T06:38:55.339Z,101824.40
2022-10-11T06:41:27.520Z,101818.00
2022-10-11T06:43:56.953Z,101818.40
2022-10-11T06:46:28.179Z,101815.80
2022-10-11T06:48:56.834Z,101823.20
2022-10-11T06:51:26.187Z,101815.80
2022-10-11T06:53:58.203Z,101819.80
2022-10-11T06:56:28.517Z,101822.60
2022-10-11T06:58:58.783Z,101820.80
2022-10-11T07:01:28.402Z,101821.80
2022-10-11T07:03:58.483Z,101822.80
2022-10-11T07:06:31.085Z,101825.20
2022-10-11T07:09:00.960Z,101832.40
2022-10-11T07:11:29.664Z,101830.60
2022-10-11T07:14:01.824Z,101833.00
2022-10-11T07:16:30.991Z,101830.60
2022-10-11T07:19:02.372Z,101837.60
2022-10-11T07:21:33.310Z,101838.40
2022-10-11T07:24:02.822Z,101847.40
2022-10-11T07:26:37.637Z,101845.00
2022-10-11T07:29:09.314Z,101848.80
2022-10-11T07:31:41.547Z,101847.00
2022-10-11T07:34:10.988Z,101854.00
2022-10-11T07:36:39.568Z,101853.60
2022-10-11T07:39:09.701Z,101843.00
2022-10-11T07:41:44.659Z,101854.20
2022-10-11T07:44:14.966Z,101855.20
2022-10-11T07:46:43.533Z,101859.80
2022-10-11T07:49:12.018Z,101855.40
2022-10-11T07:51:40.495Z,101857.20
2022-10-11T07:54:09.488Z,101855.80
2022-10-11T07:56:38.509Z,101860.40
2022-10-11T07:59:08.348Z,101866.40
2022-10-11T08:01:36.940Z,101859.80
2022-10-11T08:04:06.235Z,101865.20
2022-10-11T08:06:36.814Z,101857.00
2022-10-11T08:09:06.017Z,101860.00
2022-10-11T08:11:38.704Z,101859.00
2022-10-11T08:14:11.582Z,101862.40
2022-10-11T08:16:41.231Z,101863.80
2022-10-11T08:19:11.201Z,101867.00
2022-10-11T08:21:39.876Z,101869.00
2022-10-11T08:24:08.644Z,101865.60
2022-10-11T08:26:37.280Z,101864.00
2022-10-11T08:29:06.087Z,101866.80
2022-10-11T08:31:35.332Z,101865.20
2022-10-11T08:34:04.197Z,101873.80
2022-10-11T08:36:33.049Z,101879.00
2022-10-11T08:39:01.987Z,101875.80
2022-10-11T08:41:49.978Z,101874.00
2022-10-11T08:44:58.386Z,101875.60
2022-10-11T08:47:36.805Z,101876.60
2022-10-11T08:50:08.174Z,101879.00
2022-10-11T08:52:57.114Z,101880.20
2022-10-11T08:55:44.335Z,101882.60
2022-10-11T08:58:17.631Z,101886.60
2022-10-11T09:00:50.283Z,101891.00
2022-10-11T09:03:41.235Z,101893.40
2022-10-11T09:06:41.035Z,101898.40
2022-10-11T09:09:39.930Z,101898.20
2022-10-11T09:12:26.144Z,101900.80
2022-10-11T09:15:20.108Z,101904.60
2022-10-11T09:18:13.167Z,101904.20
2022-10-11T09:21:13.701Z,101910.20
2022-10-11T09:23:48.224Z,101908.60
2022-10-11T09:26:30.049Z,101907.20
2022-10-11T09:29:10.557Z,101910.20
2022-10-11T09:31:39.698Z,101915.00
2022-10-11T09:34:15.099Z,101914.80
2022-10-11T09:37:22.827Z,101918.00
2022-10-11T09:40:07.541Z,101917.60
2022-10-11T09:42:36.077Z,101916.20
2022-10-11T09:45:17.255Z,101916.00
2022-10-11T09:47:46.143Z,101918.00
2022-10-11T09:50:26.409Z,101917.60
2022-10-11T09:53:02.154Z,101916.60
2022-10-11T09:55:52.643Z,101917.20
2022-10-11T09:58:34.550Z,101921.00
2022-10-11T10:01:07.949Z,101928.80
2022-10-11T10:03:43.419Z,101931.20
2022-10-11T10:06:39.507Z,101927.80
2022-10-11T10:09:30.727Z,101933.20
2022-10-11T10:11:59.324Z,101930.40
2022-10-11T10:14:30.983Z,101936.80
2022-10-11T10:17:17.509Z,101938.80
2022-10-11T10:20:00.505Z,101942.80
2022-10-11T10:22:33.801Z,101942.00
2022-10-11T10:25:08.254Z,101946.00
2022-10-11T10:27:36.808Z,101947.40
2022-10-11T10:30:08.363Z,101954.60
2022-10-11T10:32:49.651Z,101958.20
2022-10-11T10:35:49.052Z,101955.40
2022-10-11T10:38:43.439Z,101955.40
2022-10-11T10:41:15.452Z,101953.60
2022-10-11T10:43:53.829Z,101963.20
2022-10-11T10:46:40.324Z,101962.80
2022-10-11T10:49:54.061Z,101972.40
2022-10-11T10:53:16.410Z,101974.60
2022-10-11T10:55:52.346Z,101973.60
2022-10-11T10:58:45.938Z,101972.80
2022-10-11T11:01:23.830Z,101976.20
2022-10-11T11:04:30.625Z,101973.20
2022-10-11T11:07:30.543Z,101974.40
2022-10-11T11:10:21.245Z,101972.60
2022-10-11T11:13:04.789Z,101973.40
2022-10-11T11:15:49.034Z,101970.00
2022-10-11T11:18:41.475Z,101984.00
2022-10-11T11:21:31.158Z,101984.60
2022-10-11T11:24:24.109Z,101982.60
2022-10-11T11:27:10.617Z,101984.20
2022-10-11T11:30:14.914Z,101991.20
2022-10-11T11:33:01.646Z,101984.00
2022-10-11T11:35:45.592Z,101978.40
2022-10-11T11:38:43.567Z,101985.80
2022-10-11T11:41:21.894Z,101978.80
2022-10-11T11:44:10.020Z,101982.40
2022-10-11T11:47:12.601Z,101976.20
2022-10-11T11:49:48.412Z,101980.20
2022-10-11T11:52:45.101Z,101977.40
2022-10-11T11:55:37.953Z,101980.60
2022-10-11T11:58:31.423Z,101981.20
2022-10-11T12:01:31.495Z,101982.40
2022-10-11T12:04:33.512Z,101982.40
2022-10-11T12:07:48.963Z,101980.80
2022-10-11T12:10:53.522Z,101980.00
2022-10-11T12:13:36.648Z,101979.00
2022-10-11T12:16:10.057Z,101975.60
2022-10-11T12:18:50.610Z,101973.80
2022-10-11T12:21:21.961Z,101974.00
2022-10-11T12:23:53.826Z,101977.40
2022-10-11T12:26:28.043Z,101980.00
2022-10-11T12:29:18.656Z,101978.60
2022-10-11T12:32:31.154Z,101971.00
2022-10-11T12:35:31.102Z,101972.40
2022-10-11T12:38:18.928Z,101975.80
2022-10-11T12:40:52.685Z,101972.20
2022-10-11T12:43:33.001Z,101966.60
2022-10-11T12:46:29.514Z,101964.80
2022-10-11T12:49:38.034Z,101971.00
2022-10-11T12:52:28.738Z,101974.40
2022-10-11T12:55:56.305Z,101974.60
2022-10-11T12:58:44.245Z,101972.20
2022-10-11T13:01:19.375Z,101973.80
2022-10-11T13:04:11.929Z,101978.00
2022-10-11T13:06:54.780Z,101980.80
2022-10-11T13:09:36.380Z,101976.00
2022-10-11T13:12:07.085Z,101976.80
2022-10-11T13:14:43.442Z,101977.20
2022-10-11T13:17:22.264Z,101973.80
2022-10-11T13:20:17.621Z,101973.20
2022-10-11T13:22:53.832Z,101972.00
2022-10-11T13:25:36.043Z,101970.60
2022-10-11T13:28:09.618Z,101974.40
2022-10-11T13:30:44.077Z,101970.60
2022-10-11T13:33:35.871Z,101968.20
2022-10-11T13:36:09.623Z,101968.60
2022-10-11T13:38:38.297Z,101967.40
2022-10-11T13:41:10.913Z,101965.20
2022-10-11T13:43:41.120Z,101965.40
2022-10-11T13:46:22.165Z,101968.20
2022-10-11T13:49:23.721Z,101966.60
2022-10-11T13:52:18.740Z,101967.20
2022-10-11T13:54:53.664Z,101967.00
2022-10-11T13:57:42.315Z,101967.00
2022-10-11T14:00:38.091Z,101964.80
2022-10-11T14:03:13.082Z,101961.00
2022-10-11T14:05:51.897Z,101962.20
2022-10-11T14:09:05.338Z,101959.80
2022-10-11T14:11:40.608Z,101961.20
2022-10-11T14:14:35.915Z,101963.00
2022-10-11T14:17:11.532Z,101963.60
2022-10-11T14:19:40.429Z,101965.40
2022-10-11T14:22:17.871Z,101967.00
2022-10-11T14:24:49.479Z,101960.00
2022-10-11T14:27:23.984Z,101955.80
2022-10-11T14:30:13.005Z,101957.00
2022-10-11T14:32:42.573Z,101959.40
2022-10-11T14:35:18.290Z,101963.00
2022-10-11T14:37:47.379Z,101962.00
2022-10-11T14:40:23.005Z,101962.80
2022-10-11T14:42:52.163Z,101963.20
2022-10-11T14:45:21.667Z,101961.60
2022-10-11T14:47:50.255Z,101967.00
2022-10-11T14:50:43.824Z,101966.20
2022-10-11T14:53:12.612Z,101970.40
2022-10-11T14:55:42.664Z,101968.60
2022-10-11T14:58:15.206Z,101970.20
2022-10-11T15:00:44.382Z,101972.80
2022-10-11T15:03:14.117Z,101976.80
2022-10-11T15:05:42.498Z,101982.60
2022-10-11T15:08:12.288Z,101982.40
2022-10-11T15:10:42.300Z,101983.20
2022-10-11T15:13:10.912Z,101982.00
2022-10-11T15:15:41.370Z,101977.40
2022-10-11T15:18:16.989Z,101978.80
2022-10-11T15:20:46.859Z,101986.40
2022-10-11T15:23:15.490Z,101986.40
2022-10-11T15:25:44.177Z,101990.80
2022-10-11T15:28:32.210Z,101992.20
2022-10-11T15:31:01.621Z,101995.00
2022-10-11T15:33:30.103Z,101994.80
2022-10-11T15:35:58.585Z,101985.60
2022-10-11T15:38:28.110Z,101992.00
2022-10-11T15:40:56.778Z,101991.20
2022-10-11T15:43:27.787Z,101990.40
2022-10-11T15:45:58.141Z,101995.00
2022-10-11T15:48:27.571Z,101997.80
2022-10-11T15:50:56.235Z,101995.20
2022-10-11T15:53:31.627Z,101994.40
2022-10-11T15:56:08.151Z,102000.40
2022-10-11T15:58:40.978Z,101998.60
2022-10-11T16:01:17.983Z,102000.20
2022-10-11T16:03:49.068Z,102002.40
2022-10-11T16:06:19.615Z,102006.60
2022-10-11T16:08:48.482Z,102003.00
2022-10-11T16:11:17.065Z,102011.00
2022-10-11T16:13:45.648Z,102016.40
2022-10-11T16:16:14.439Z,102018.20
2022-10-11T16:18:43.095Z,102021.40
2022-10-11T16:21:15.808Z,102029.80
2022-10-11T16:23:44.399Z,102028.60
2022-10-11T16:26:16.523Z,102033.60
2022-10-11T16:28:45.478Z,102039.60
2022-10-11T16:31:18.410Z,102042.40
2022-10-11T16:33:48.197Z,102041.60
2022-10-11T16:36:40.818Z,102047.00
2022-10-11T16:39:18.549Z,102044.40
2022-10-11T16:41:47.845Z,102049.80
2022-10-11T16:44:24.348Z,102050.00
2022-10-11T16:46:52.852Z,102050.40
2022-10-11T16:49:25.179Z,102056.20
2022-10-11T16:51:56.435Z,102059.00
2022-10-11T16:54:27.368Z,102060.80
2022-10-11T16:56:55.997Z,102056.40
2022-10-11T16:59:24.695Z,102062.60
2022-10-11T17:01:53.369Z,102059.60
2022-10-11T17:04:22.569Z,102064.60
2022-10-11T17:06:52.074Z,102067.60
2022-10-11T17:09:20.697Z,102069.40
2022-10-11T17:11:49.551Z,102071.60
2022-10-11T17:14:18.356Z,102072.80
2022-10-11T17:16:47.126Z,102074.80
2022-10-11T17:19:16.257Z,102071.80
2022-10-11T17:21:44.705Z,102074.80
2022-10-11T17:24:13.187Z,102077.20
2022-10-11T17:26:41.672Z,102079.40
2022-10-11T17:29:17.348Z,102078.80
2022-10-11T17:31:49.146Z,102082.40
2022-10-11T17:34:18.688Z,102082.20
2022-10-11T17:36:48.172Z,102090.20
2022-10-11T17:39:20.979Z,102087.40
2022-10-11T17:41:50.559Z,102091.20
2022-10-11T17:44:20.289Z,102094.80
2022-10-11T17:46:49.391Z,102091.80
2022-10-11T17:49:17.874Z,102091.40
2022-10-11T17:51:46.355Z,102092.40
2022-10-11T17:54:14.840Z,102096.40
2022-10-11T17:56:43.323Z,102099.40
2022-10-11T17:59:27.592Z,102098.80
2022-10-11T18:01:56.569Z,102099.20
2022-10-11T18:04:27.505Z,102101.00
2022-10-11T18:06:56.806Z,102101.80
2022-10-11T18:09:25.376Z,102106.80
2022-10-11T18:11:53.883Z,102100.00
2022-10-11T18:14:22.563Z,102106.20
2022-10-11T18:16:51.040Z,102104.00
2022-10-11T18:19:19.523Z,102104.60
2022-10-11T18:21:48.009Z,102105.80
2022-10-11T18:24:17.427Z,102110.80
2022-10-11T18:26:47.224Z,102110.20
2022-10-11T18:29:16.945Z,102108.40
2022-10-11T18:31:46.440Z,102107.00
2022-10-11T18:34:16.158Z,102109.60
2022-10-11T18:36:44.877Z,102109.40
2022-10-11T18:39:15.991Z,102109.00
2022-10-11T18:41:45.080Z,102101.40
2022-10-11T18:44:15.905Z,102106.60
2022-10-11T18:46:45.936Z,102108.00
2022-10-11T18:49:14.869Z,102106.60
2022-10-11T18:51:46.512Z,102108.20
2022-10-11T18:54:20.067Z,102109.20
2022-10-11T18:56:49.899Z,102111.00
2022-10-11T18:59:18.889Z,102112.80
2022-10-11T19:01:48.452Z,102117.00
2022-10-11T19:04:17.560Z,102116.60
2022-10-11T19:06:49.273Z,102114.00
2022-10-11T19:09:22.805Z,102115.20
2022-10-11T19:11:54.640Z,102117.60
2022-10-11T19:14:28.539Z,102110.80
2022-10-11T19:16:57.868Z,102113.60
2022-10-11T19:19:29.609Z,102117.60
2022-10-11T19:21:58.065Z,102120.20
2022-10-11T19:24:29.475Z,102113.00
2022-10-11T19:27:02.514Z,102114.00
2022-10-11T19:29:32.624Z,102117.60
2022-10-11T19:32:03.882Z,102114.40
2022-10-11T19:34:33.175Z,102116.00
2022-10-11T19:37:03.607Z,102117.80
2022-10-11T19:39:32.737Z,102113.60
2022-10-11T19:42:01.588Z,102117.80
2022-10-11T19:44:31.800Z,102119.60
2022-10-11T19:47:05.389Z,102120.60
2022-10-11T19:49:34.178Z,102123.20
2022-10-11T19:52:02.682Z,102125.00
2022-10-11T19:54:32.333Z,102126.60
2022-10-11T19:57:00.984Z,102132.00
2022-10-11T19:59:29.566Z,102131.40
2022-10-11T20:01:58.254Z,102134.60
2022-10-11T20:04:51.013Z,102130.80
2022-10-11T20:07:15.592Z,102128.20
2022-10-11T20:09:44.289Z,102134.60
2022-10-11T20:12:12.767Z,102131.00
2022-10-11T20:14:41.242Z,102136.00
2022-10-11T20:17:09.621Z,102129.40
2022-10-11T20:19:38.247Z,102133.40
2022-10-11T20:22:07.041Z,102132.60
2022-10-11T20:24:36.300Z,102132.20
2022-10-11T20:27:06.423Z,102134.20
2022-10-11T20:29:35.412Z,102133.60
2022-10-11T20:32:04.033Z,102135.20
2022-10-11T20:34:32.785Z,102138.80
2022-10-11T20:37:01.475Z,102142.80
2022-10-11T20:39:30.101Z,102149.00
2022-10-11T20:42:02.001Z,102155.40
2022-10-11T20:44:31.837Z,102151.60
2022-10-11T20:47:03.899Z,102146.60
2022-10-11T20:49:32.894Z,102148.80
2022-10-11T20:52:01.376Z,102149.00
2022-10-11T20:54:31.152Z,102153.00
2022-10-11T20:57:00.933Z,102150.80
2022-10-11T20:59:29.584Z,102155.40
2022-10-11T21:01:59.194Z,102154.20
2022-10-11T21:04:27.675Z,102151.60
2022-10-11T21:06:56.464Z,102158.20
2022-10-11T21:09:25.151Z,102160.00
2022-10-11T21:11:53.837Z,102159.40
2022-10-11T21:14:23.174Z,102156.20
2022-10-11T21:16:52.217Z,102156.40
2022-10-11T21:19:21.126Z,102150.80
2022-10-11T21:21:53.709Z,102152.40
2022-10-11T21:24:23.529Z,102152.80
2022-10-11T21:26:53.295Z,102149.80
2022-10-11T21:29:23.451Z,102153.20
2022-10-11T21:31:51.939Z,102152.80
2022-10-11T21:34:20.418Z,102151.80
2022-10-11T21:36:48.902Z,102152.40
2022-10-11T21:39:17.380Z,102152.20
2022-10-11T21:41:45.865Z,102156.40
2022-10-11T21:44:14.450Z,102161.20
2022-10-11T21:47:05.414Z,102160.00
2022-10-11T21:49:31.482Z,102158.60
2022-10-11T21:51:59.860Z,102157.80
2022-10-11T21:54:28.347Z,102153.20
2022-10-11T21:56:56.829Z,102154.80
2022-10-11T21:59:25.308Z,102152.80
2022-10-11T22:01:55.982Z,102150.00
2022-10-11T22:04:27.914Z,102157.80
2022-10-11T22:06:56.592Z,102161.00
2022-10-11T22:09:25.276Z,102157.40
2022-10-11T22:11:53.965Z,102163.00
2022-10-11T22:14:22.550Z,102162.40
2022-10-11T22:16:50.951Z,102159.80
2022-10-11T22:19:19.616Z,102163.20
2022-10-11T22:21:48.095Z,102163.20
2022-10-11T22:24:17.030Z,102169.80
2022-10-11T22:26:45.674Z,102170.20
2022-10-11T22:29:14.162Z,102169.60
2022-10-11T22:31:42.740Z,102174.80
2022-10-11T22:34:11.222Z,102172.20
2022-10-11T22:36:39.806Z,102175.60
2022-10-11T22:39:10.131Z,102178.40
2022-10-11T22:41:38.716Z,102176.40
2022-10-11T22:44:07.508Z,102175.20
2022-10-11T22:46:35.993Z,102177.60
2022-10-11T22:49:04.573Z,102172.40
2022-10-11T22:51:33.053Z,102172.60
2022-10-11T22:54:01.536Z,102169.60
2022-10-11T22:56:30.038Z,102167.60
2022-10-11T22:58:59.661Z,102167.80
2022-10-11T23:01:28.108Z,102171.00
2022-10-11T23:03:56.872Z,102165.80
2022-10-11T23:06:25.401Z,102167.40
2022-10-11T23:08:53.862Z,102166.60
2022-10-11T23:11:22.344Z,102171.80
2022-10-11T23:13:50.825Z,102170.40
2022-10-11T23:16:19.614Z,102173.00
2022-10-11T23:18:48.101Z,102171.20
2022-10-11T23:21:16.476Z,102167.20
2022-10-11T23:23:45.266Z,102169.80
2022-10-11T23:26:17.434Z,102173.20
2022-10-11T23:28:46.172Z,102170.60
2022-10-11T23:31:19.108Z,102173.40
2022-10-11T23:33:48.819Z,102173.00
2022-10-11T23:36:20.792Z,102178.20
2022-10-11T23:38:58.540Z,102177.20
2022-10-11T23:41:30.101Z,102177.60
2022-10-11T23:43:59.235Z,102180.60
2022-10-11T23:46:27.817Z,102175.40
2022-10-11T23:48:56.402Z,102177.20
2022-10-11T23:51:24.884Z,102184.00
2022-10-11T23:53:53.665Z,102183.60
2022-10-11T23:56:22.158Z,102182.60
2022-10-11T23:58:50.842Z,102182.00
